Terminal Aerodrome Forecast
Issued by NWS

Home | Current Version | Previous Version | Graphics & Text | Print | Product List | Glossary On
Versions: 1 2 3 4 5 6 7 8 9 10 11 12 13 14 15 16 17 18 19 20
000
FTUS43 KMPX 261000 AAB
TAFAXN
TAF AMD
KAXN 261006Z 2610/2706 02011KT P6SM -SN SCT025 BKN040
     FM261400 36013KT 6SM -SN OVC012
     FM261800 34014KT P6SM SCT012 BKN050
     FM270000 34008KT P6SM SKC=

USA.gov is the U.S. government's official web portal to all federal, state and local government web resources and services.